This is the latest recevied weather packets stored in our database for station/object K6FAK-13. If no packets are shown the sender has not sent any weather packets the latest 10 day(s).
| Time | Temp. | Humidity | Pressure | Rain* | Wind** | Luminosity | Snow |
|---|---|---|---|---|---|---|---|
| 1777648021 | 16.67° C | 77% | 1015.9 hPa | 0 mm | - | 219 W/m² | - |
| 1777647717 | 16.67° C | 77% | 1016.1 hPa | 0 mm | - | 134 W/m² | - |
| 1777647413 | 16.11° C | 79% | 1015.9 hPa | 0 mm | - | 181 W/m² | - |
| 1777647111 | 16.67° C | 78% | 1015.9 hPa | 0 mm | - | 161 W/m² | - |
| 1777646502 | 15.56° C | 82% | 1015.9 hPa | 0 mm | - | 133 W/m² | - |
| 1777646198 | 15° C | 82% | 1015.9 hPa | 0 mm | - | 120 W/m² | - |
| 1777645896 | 15° C | 84% | 1015.9 hPa | 0 mm | - | 105 W/m² | - |
| 1777645593 | 14.44° C | 85% | 1015.7 hPa | 0 mm | - | 92 W/m² | - |
| 1777645289 | 13.89° C | 85% | 1015.6 hPa | 0 mm | - | 59 W/m² | - |
| 1777644985 | 13.89° C | 86% | 1015.6 hPa | 0 mm | - | 50 W/m² | - |
| 1777644683 | 13.89° C | 86% | 1015.7 hPa | 0 mm | - | 46 W/m² | - |
| 1777644378 | 13.33° C | 87% | 1015.7 hPa | 0 mm | - | 40 W/m² | - |
| 1777644076 | 13.33° C | 87% | 1015.5 hPa | 0 mm | - | 36 W/m² | - |
| 1777643772 | 13.33° C | 88% | 1015.5 hPa | 0 mm | - | 32 W/m² | - |
| 1777643166 | 12.78° C | 89% | 1015.3 hPa | 0 mm | - | 23 W/m² | - |
| 1777642863 | 12.78° C | 90% | 1015.4 hPa | 0 mm | - | 19 W/m² | - |
| 1777642560 | 12.78° C | 90% | 1015.1 hPa | 0 mm | - | 16 W/m² | - |
| 1777642256 | 12.22° C | 91% | 1015.3 hPa | 0 mm | - | 12 W/m² | - |
| 1777641953 | 12.22° C | 91% | 1015.3 hPa | 0 mm | - | 10 W/m² | - |
| 1777641649 | 12.78° C | 90% | 1015.2 hPa | 0 mm | - | 6 W/m² | - |
| 1777641344 | 12.78° C | 90% | 1015.1 hPa | 0 mm | - | 3 W/m² | - |
| 1777639827 | 12.22° C | 91% | 1014.8 hPa | 0 mm | - | 0 W/m² | - |
| 1777638005 | 12.78° C | 90% | 1014.6 hPa | 0 mm | - | 0 W/m² | - |
| 1777637095 | 12.78° C | 88% | 1014.5 hPa | 0 mm | - | 0 W/m² | - |
| 1777636791 | 13.33° C | 88% | 1014.4 hPa | 0 mm | - | 0 W/m² | - |
* Rain latest hour (hover to see other rain measurements)
** Current wind speed in m/s (hover to see current wind gust speed)